Jnctn City, Ohio
Current Conditions -  °F | °C
As of 4:53 PM on Saturday 20 Dec 2014 (Local Time) from KLHQ Reporting Station
Overcast Overcast  
Wind Chill: 35°   Ceiling: 1900
Heat Index: 35°   Visibility: 8mi
Dew Point: 25°   Wind: 3mph
Humidity: 67%   Direction: 40°NE
Pressure: 30.26"   Gusts: NA
Location:  39.7014°N, 82.3065°W
Report Text: KLHQ 202153Z AUTO 04003KT 8SM OVC019 02/M04 A3026 RMK AO2 SLP253 T00171039
Loading
Personal Weather Stations






























Interactive Weather Map New forecast layout! Learn more

10-Day Weather Forecast

Advertisements
Track Severe Weather on mobile